This is the latest recevied weather packets stored in our database for station/object DM4SB-13. If no packets are shown the sender has not sent any weather packets the latest 10 day(s).
| Time | Temp. | Humidity | Pressure | Rain* | Wind** | Luminosity | Snow |
|---|---|---|---|---|---|---|---|
| 1777820417 | 28.33° C | 33% | 1011.3 hPa | - | - | - | - |
| 1777819818 | 29.44° C | 32% | 1011.4 hPa | - | - | - | - |
| 1777819218 | 27.78° C | 34% | 1011.7 hPa | - | - | - | - |
| 1777818618 | 24.44° C | 39% | 1011.9 hPa | - | - | - | - |
| 1777818017 | 21.11° C | 42% | 1012.1 hPa | - | - | - | - |
| 1777817418 | 21.11° C | 40% | 1011.9 hPa | - | - | - | - |
| 1777816818 | 21.67° C | 40% | 1011.9 hPa | - | - | - | - |
| 1777816218 | 21.11° C | 38% | 1012 hPa | - | - | - | - |
| 1777815618 | 21.67° C | 38% | 1012.1 hPa | - | - | - | - |
| 1777815018 | 20.56° C | 38% | 1012.2 hPa | - | - | - | - |
| 1777814417 | 20.56° C | 37% | 1012.4 hPa | - | - | - | - |
| 1777813818 | 20.56° C | 36% | 1012.3 hPa | - | - | - | - |
| 1777813217 | 20.56° C | 36% | 1012.5 hPa | - | - | - | - |
| 1777812618 | 20.56° C | 37% | 1012.5 hPa | - | - | - | - |
| 1777812018 | 20° C | 38% | 1012.5 hPa | - | - | - | - |
| 1777811418 | 20° C | 43% | 1012.4 hPa | - | - | - | - |
| 1777810818 | 19.44° C | 44% | 1012.5 hPa | - | - | - | - |
| 1777810218 | 18.89° C | 46% | 1012.8 hPa | - | - | - | - |
| 1777809617 | 18.89° C | 47% | 1013.2 hPa | - | - | - | - |
| 1777809018 | 18.89° C | 46% | 1013.3 hPa | - | - | - | - |
| 1777808418 | 18.33° C | 47% | 1013.5 hPa | - | - | - | - |
| 1777807817 | 18.33° C | 47% | 1013.8 hPa | - | - | - | - |
| 1777807217 | 17.78° C | 47% | 1013.8 hPa | - | - | - | - |
| 1777806617 | 17.78° C | 48% | 1013.9 hPa | - | - | - | - |
| 1777806017 | 17.78° C | 49% | 1014.1 hPa | - | - | - | - |
* Rain since midnight (hover to see other rain measurements)
** Current wind speed in m/s (hover to see current wind gust speed)